createdAt,value
2019-04-10T00:01:36.108Z,101702.50
2019-04-10T00:04:10.500Z,101699.80
2019-04-10T00:06:44.657Z,101698.63
2019-04-10T00:09:18.986Z,101697.28
2019-04-10T00:11:53.491Z,101699.17
2019-04-10T00:14:28.252Z,101693.21
2019-04-10T00:17:02.710Z,101695.41
2019-04-10T00:19:36.530Z,101704.00
2019-04-10T00:22:10.322Z,101700.31
2019-04-10T00:24:44.251Z,101701.45
2019-04-10T00:27:18.660Z,101703.98
2019-04-10T00:29:52.624Z,101699.66
2019-04-10T00:32:27.818Z,101702.02
2019-04-10T00:35:02.550Z,101703.29
2019-04-10T00:37:37.149Z,101702.62
2019-04-10T00:40:11.585Z,101705.06
2019-04-10T00:42:45.462Z,101700.81
2019-04-10T00:45:19.563Z,101706.24
2019-04-10T00:47:53.714Z,101704.52
2019-04-10T00:50:28.389Z,101705.62
2019-04-10T00:53:03.006Z,101706.75
2019-04-10T00:55:37.609Z,101701.48
2019-04-10T00:58:12.092Z,101703.38
2019-04-10T01:00:46.095Z,101702.59
2019-04-10T01:03:38.185Z,101697.27
2019-04-10T01:06:13.423Z,101704.42
2019-04-10T01:08:47.425Z,101703.40
2019-04-10T01:11:21.228Z,101706.62
2019-04-10T01:13:55.206Z,101708.03
2019-04-10T01:16:29.006Z,101706.92
2019-04-10T01:19:03.694Z,101705.92
2019-04-10T01:21:38.759Z,101713.23
2019-04-10T01:24:13.181Z,101712.84
2019-04-10T01:26:47.558Z,101711.18
2019-04-10T01:29:21.738Z,101709.14
2019-04-10T01:31:55.399Z,101713.70
2019-04-10T01:34:29.535Z,101708.83
2019-04-10T01:37:04.770Z,101713.61
2019-04-10T01:39:38.653Z,101716.90
2019-04-10T01:42:12.511Z,101715.24
2019-04-10T01:44:47.052Z,101717.23
2019-04-10T01:47:21.366Z,101719.98
2019-04-10T01:49:55.783Z,101720.42
2019-04-10T01:52:29.546Z,101715.23
2019-04-10T01:55:18.166Z,101719.56
2019-04-10T01:57:39.354Z,101722.70
2019-04-10T02:00:16.484Z,101717.44
2019-04-10T02:02:51.904Z,101714.84
2019-04-10T02:05:25.576Z,101718.84
2019-04-10T02:08:07.946Z,101718.66
2019-04-10T02:10:36.326Z,101717.19
2019-04-10T02:13:10.247Z,101719.82
2019-04-10T02:15:44.289Z,101719.36
2019-04-10T02:18:18.029Z,101721.77
2019-04-10T02:20:51.759Z,101724.05
2019-04-10T02:23:26.072Z,101726.49
2019-04-10T02:25:59.896Z,101731.03
2019-04-10T02:28:33.631Z,101727.03
2019-04-10T02:31:07.375Z,101734.46
2019-04-10T02:33:41.332Z,101736.66
2019-04-10T02:36:15.116Z,101739.61
2019-04-10T02:39:04.645Z,101739.61
2019-04-10T02:41:25.514Z,101740.32
2019-04-10T02:44:00.019Z,101743.53
2019-04-10T02:46:34.795Z,101741.54
2019-04-10T02:49:08.857Z,101740.74
2019-04-10T02:51:43.296Z,101747.62
2019-04-10T02:54:17.576Z,101744.46
2019-04-10T02:56:52.789Z,101746.94
2019-04-10T02:59:27.164Z,101743.08
2019-04-10T03:02:02.367Z,101748.28
2019-04-10T03:04:37.234Z,101740.98
2019-04-10T03:07:11.659Z,101745.52
2019-04-10T03:10:00.866Z,101743.78
2019-04-10T03:12:22.079Z,101743.78
2019-04-10T03:14:58.959Z,101745.66
2019-04-10T03:17:33.263Z,101749.12
2019-04-10T03:20:07.960Z,101750.11
2019-04-10T03:22:41.616Z,101749.88
2019-04-10T03:25:15.412Z,101749.95
2019-04-10T03:27:50.137Z,101757.27
2019-04-10T03:30:24.055Z,101757.27
2019-04-10T03:33:22.652Z,101758.34
2019-04-10T03:35:55.397Z,101756.27
2019-04-10T03:38:29.951Z,101755.47
2019-04-10T03:41:04.064Z,101759.33
2019-04-10T03:43:38.433Z,101755.00
2019-04-10T03:46:13.009Z,101753.49
2019-04-10T03:48:47.322Z,101751.70
2019-04-10T03:51:21.089Z,101754.89
2019-04-10T03:53:55.095Z,101754.42
2019-04-10T03:56:29.704Z,101756.75
2019-04-10T03:59:04.147Z,101755.02
2019-04-10T04:01:38.848Z,101761.81
2019-04-10T04:04:13.322Z,101760.08
2019-04-10T04:06:48.166Z,101758.80
2019-04-10T04:09:22.235Z,101763.73
2019-04-10T04:11:55.947Z,101765.53
2019-04-10T04:14:30.506Z,101764.85
2019-04-10T04:17:04.567Z,101768.55
2019-04-10T04:19:38.308Z,101764.67
2019-04-10T04:22:12.541Z,101771.52
2019-04-10T04:24:46.906Z,101772.86
2019-04-10T04:27:21.624Z,101776.45
2019-04-10T04:29:55.399Z,101773.44
2019-04-10T04:32:29.379Z,101781.03
2019-04-10T04:35:03.347Z,101789.61
2019-04-10T04:37:37.926Z,101790.48
2019-04-10T04:40:11.879Z,101791.41
2019-04-10T04:42:45.719Z,101790.59
2019-04-10T04:45:19.700Z,101790.59
2019-04-10T04:47:55.569Z,101790.53
2019-04-10T04:50:29.677Z,101794.12
2019-04-10T04:53:04.473Z,101794.59
2019-04-10T04:55:38.214Z,101795.05
2019-04-10T04:58:12.249Z,101799.05
2019-04-10T05:00:46.019Z,101802.27
2019-04-10T05:03:20.751Z,101798.28
2019-04-10T05:05:56.196Z,101802.39
2019-04-10T05:08:30.325Z,101806.67
2019-04-10T05:11:04.372Z,101811.59
2019-04-10T05:13:38.338Z,101811.91
2019-04-10T05:16:12.089Z,101818.56
2019-04-10T05:18:45.979Z,101818.91
2019-04-10T05:21:21.008Z,101822.03
2019-04-10T05:23:55.458Z,101835.69
2019-04-10T05:26:29.500Z,101841.36
2019-04-10T05:29:03.220Z,101840.77
2019-04-10T05:31:36.951Z,101849.98
2019-04-10T05:34:11.437Z,101851.59
2019-04-10T05:36:45.445Z,101857.45
2019-04-10T05:39:19.208Z,101859.46
2019-04-10T05:41:52.890Z,101859.73
2019-04-10T05:44:27.738Z,101870.52
2019-04-10T05:47:01.719Z,101870.86
2019-04-10T05:49:35.444Z,101872.06
2019-04-10T05:52:10.386Z,101873.28
2019-04-10T05:54:44.193Z,101874.23
2019-04-10T05:57:18.075Z,101875.62
2019-04-10T05:59:52.363Z,101877.63
2019-04-10T06:02:27.135Z,101885.61
2019-04-10T06:05:02.337Z,101880.95
2019-04-10T06:07:37.135Z,101884.16
2019-04-10T06:10:11.313Z,101889.07
2019-04-10T06:12:45.112Z,101883.27
2019-04-10T06:15:19.176Z,101889.05
2019-04-10T06:17:52.921Z,101887.64
2019-04-10T06:20:26.637Z,101889.66
2019-04-10T06:23:01.265Z,101892.72
2019-04-10T06:25:38.145Z,101898.88
2019-04-10T06:28:10.448Z,101890.11
2019-04-10T06:30:44.155Z,101898.87
2019-04-10T06:33:18.086Z,101890.75
2019-04-10T06:35:52.860Z,101896.89
2019-04-10T06:38:26.897Z,101895.52
2019-04-10T06:41:00.622Z,101901.26
2019-04-10T06:43:34.427Z,101901.22
2019-04-10T06:46:08.442Z,101904.89
2019-04-10T06:48:42.482Z,101903.19
2019-04-10T06:51:18.877Z,101908.01
2019-04-10T06:54:01.797Z,101906.82
2019-04-10T06:56:27.603Z,101911.68
2019-04-10T06:59:02.526Z,101913.81
2019-04-10T07:01:45.422Z,101913.95
2019-04-10T07:04:12.152Z,101912.38
2019-04-10T07:06:55.708Z,101913.20
2019-04-10T07:09:26.159Z,101918.71
2019-04-10T07:12:00.189Z,101914.45
2019-04-10T07:14:36.504Z,101917.64
2019-04-10T07:17:10.496Z,101922.75
2019-04-10T07:19:45.947Z,101914.90
2019-04-10T07:22:20.724Z,101922.84
2019-04-10T07:24:54.561Z,101923.09
2019-04-10T07:27:28.350Z,101922.81
2019-04-10T07:30:02.168Z,101929.18
2019-04-10T07:32:36.191Z,101929.28
2019-04-10T07:35:13.997Z,101929.03
2019-04-10T07:37:52.753Z,101938.45
2019-04-10T07:40:22.876Z,101943.39
2019-04-10T07:42:56.873Z,101942.22
2019-04-10T07:45:30.726Z,101938.83
2019-04-10T07:48:04.696Z,101942.70
2019-04-10T07:50:39.062Z,101937.92
2019-04-10T07:53:12.884Z,101940.05
2019-04-10T07:55:58.338Z,101942.56
2019-04-10T07:58:23.533Z,101952.05
2019-04-10T08:00:57.535Z,101954.17
2019-04-10T08:03:31.638Z,101947.28
2019-04-10T08:06:06.728Z,101944.09
2019-04-10T08:08:40.654Z,101947.75
2019-04-10T08:11:15.425Z,101956.68
2019-04-10T08:13:49.297Z,101960.58
2019-04-10T08:16:23.233Z,101961.39
2019-04-10T08:18:57.060Z,101960.41
2019-04-10T08:21:31.669Z,101960.55
2019-04-10T08:24:05.941Z,101960.59
2019-04-10T08:26:40.946Z,101965.47
2019-04-10T08:29:14.705Z,101965.47
2019-04-10T08:31:48.667Z,101962.60
2019-04-10T08:34:22.458Z,101978.91
2019-04-10T08:36:56.780Z,101970.18
2019-04-10T08:39:38.781Z,101978.45
2019-04-10T08:42:06.501Z,101972.95
2019-04-10T08:44:40.791Z,101975.92
2019-04-10T08:47:15.256Z,101981.31
2019-04-10T08:49:49.446Z,101976.88
2019-04-10T08:52:24.187Z,101978.30
2019-04-10T08:54:59.522Z,101984.03
2019-04-10T08:57:34.200Z,101994.68
2019-04-10T09:00:10.196Z,102001.56
2019-04-10T09:02:44.434Z,101998.58
2019-04-10T09:05:19.338Z,102005.56
2019-04-10T09:07:54.662Z,102006.06
2019-04-10T09:10:28.577Z,102003.09
2019-04-10T09:13:02.579Z,102006.20
2019-04-10T09:15:36.523Z,102005.31
2019-04-10T09:18:11.363Z,102002.81
2019-04-10T09:20:46.919Z,102000.47
2019-04-10T09:23:30.751Z,102008.81
2019-04-10T09:25:57.556Z,102006.07
2019-04-10T09:28:32.710Z,102010.86
2019-04-10T09:31:07.372Z,102003.85
2019-04-10T09:33:41.382Z,102004.51
2019-04-10T09:36:15.224Z,102011.63
2019-04-10T09:38:48.970Z,102001.48
2019-04-10T09:41:22.794Z,102003.83
2019-04-10T09:43:58.184Z,101991.36
2019-04-10T09:46:33.005Z,102001.57
2019-04-10T09:49:07.139Z,101997.45
2019-04-10T09:51:41.138Z,101992.83
2019-04-10T09:54:15.450Z,101983.65
2019-04-10T09:56:50.694Z,101986.55
2019-04-10T09:59:32.925Z,101990.95
2019-04-10T10:02:00.752Z,101995.80
2019-04-10T10:04:34.471Z,101997.34
2019-04-10T10:07:08.309Z,101992.08
2019-04-10T10:09:43.140Z,101999.00
2019-04-10T10:12:17.950Z,101987.42
2019-04-10T10:14:51.958Z,101999.72
2019-04-10T10:17:25.700Z,101996.53
2019-04-10T10:19:59.561Z,101992.06
2019-04-10T10:22:33.587Z,101983.67
2019-04-10T10:25:08.701Z,101986.53
2019-04-10T10:27:42.724Z,101992.29
2019-04-10T10:30:17.626Z,101995.18
2019-04-10T10:32:51.355Z,101998.55
2019-04-10T10:35:25.283Z,101989.12
2019-04-10T10:37:59.373Z,101990.27
2019-04-10T10:40:33.962Z,101996.05
2019-04-10T10:43:07.934Z,101995.48
2019-04-10T10:45:42.814Z,101991.84
2019-04-10T10:48:17.535Z,101996.84
2019-04-10T10:50:51.504Z,101995.50
2019-04-10T10:53:25.293Z,101997.16
2019-04-10T10:55:59.891Z,101998.53
2019-04-10T10:58:34.042Z,101989.72
2019-04-10T11:01:07.902Z,101994.85
2019-04-10T11:03:42.545Z,101991.77
2019-04-10T11:06:17.750Z,101995.02
2019-04-10T11:08:51.549Z,101985.05
2019-04-10T11:11:25.329Z,101980.89
2019-04-10T11:13:59.062Z,101975.66
2019-04-10T11:16:33.927Z,101975.40
2019-04-10T11:19:08.059Z,101973.70
2019-04-10T11:21:42.953Z,101976.73
2019-04-10T11:24:17.527Z,101991.02
2019-04-10T11:29:38.993Z,101988.14
2019-04-10T11:32:14.354Z,101985.72
2019-04-10T11:34:49.375Z,101991.30
2019-04-10T11:37:33.759Z,101986.54
2019-04-10T11:40:01.219Z,101990.89
2019-04-10T11:42:35.163Z,101995.09
2019-04-10T11:45:10.903Z,101992.83
2019-04-10T11:47:45.017Z,101989.61
2019-04-10T11:50:19.469Z,101985.48
2019-04-10T11:52:55.913Z,101993.75
2019-04-10T11:55:29.734Z,101990.67
2019-04-10T11:58:05.365Z,102002.30
2019-04-10T12:00:50.760Z,102000.90
2019-04-10T12:03:18.180Z,101995.34
2019-04-10T12:05:55.137Z,101988.56
2019-04-10T12:08:50.278Z,101998.77
2019-04-10T12:13:38.619Z,101998.98
2019-04-10T12:16:12.630Z,102004.38
2019-04-10T12:18:46.820Z,102002.16
2019-04-10T12:21:20.613Z,101993.96
2019-04-10T12:23:54.317Z,101997.73
2019-04-10T12:26:28.361Z,101997.30
2019-04-10T12:29:02.507Z,101990.58
2019-04-10T12:31:36.495Z,101992.65
2019-04-10T12:34:10.780Z,101999.55
2019-04-10T12:36:44.857Z,102006.55
2019-04-10T12:39:18.645Z,102004.16
2019-04-10T12:41:52.353Z,101995.13
2019-04-10T12:44:26.123Z,102000.84
2019-04-10T12:46:59.900Z,102001.34
2019-04-10T12:49:33.935Z,101996.14
2019-04-10T12:52:08.081Z,101993.02
2019-04-10T12:54:42.738Z,101999.16
2019-04-10T12:57:17.011Z,101997.47
2019-04-10T12:59:50.712Z,102004.43
2019-04-10T13:02:24.426Z,102015.28
2019-04-10T13:04:58.128Z,102011.34
2019-04-10T13:07:31.837Z,102008.88
2019-04-10T13:10:06.574Z,102006.45
2019-04-10T13:12:40.342Z,102002.04
2019-04-10T13:15:15.074Z,101998.97
2019-04-10T13:17:49.108Z,102008.52
2019-04-10T13:20:23.981Z,102002.86
2019-04-10T13:22:58.317Z,101993.11
2019-04-10T13:25:32.472Z,101996.52
2019-04-10T13:28:08.228Z,101998.30
2019-04-10T13:30:50.635Z,101991.28
2019-04-10T13:33:17.310Z,101988.91
2019-04-10T13:35:51.189Z,101985.84
2019-04-10T13:38:30.934Z,101984.22
2019-04-10T13:41:01.870Z,101980.72
2019-04-10T13:43:36.031Z,101977.59
2019-04-10T13:46:10.818Z,101970.73
2019-04-10T13:48:45.214Z,101970.74
2019-04-10T13:51:19.348Z,101976.75
2019-04-10T13:53:53.001Z,101981.45
2019-04-10T13:56:26.844Z,101983.59
2019-04-10T13:59:01.066Z,101988.63
2019-04-10T14:01:35.701Z,101979.52
2019-04-10T14:04:09.424Z,101977.16
2019-04-10T14:06:44.155Z,101981.77
2019-04-10T14:09:31.104Z,101981.30
2019-04-10T14:11:54.813Z,101992.48
2019-04-10T14:14:28.837Z,101987.17
2019-04-10T14:17:04.408Z,101987.38
2019-04-10T14:19:39.403Z,101992.01
2019-04-10T14:22:13.602Z,101996.13
2019-04-10T14:24:49.726Z,101988.19
2019-04-10T14:27:25.339Z,101987.98
2019-04-10T14:29:59.042Z,101985.70
2019-04-10T14:32:37.714Z,101990.39
2019-04-10T14:35:11.633Z,101994.41
2019-04-10T14:37:45.681Z,101990.84
2019-04-10T14:40:20.070Z,101987.91
2019-04-10T14:42:55.595Z,101993.83
2019-04-10T14:45:29.758Z,101998.20
2019-04-10T14:48:03.604Z,102001.77
2019-04-10T14:50:37.860Z,102005.41
2019-04-10T14:53:12.158Z,102003.03
2019-04-10T14:55:46.050Z,102001.22
2019-04-10T14:58:25.154Z,101996.35
2019-04-10T15:00:57.823Z,101996.06
2019-04-10T15:03:32.778Z,102011.16
2019-04-10T15:06:07.685Z,102001.89
2019-04-10T15:08:41.852Z,102009.29
2019-04-10T15:11:16.266Z,102005.75
2019-04-10T15:13:50.767Z,102002.77
2019-04-10T15:16:25.267Z,101997.12
2019-04-10T15:19:00.316Z,101988.12
2019-04-10T15:21:34.748Z,101978.51
2019-04-10T15:24:08.947Z,101982.78
2019-04-10T15:26:42.698Z,101983.33
2019-04-10T15:29:16.544Z,101983.45
2019-04-10T15:31:50.619Z,101993.56
2019-04-10T15:34:24.429Z,101984.96
2019-04-10T15:36:58.549Z,101984.95
2019-04-10T15:39:37.080Z,101983.72
2019-04-10T15:42:07.979Z,101992.48
2019-04-10T15:44:42.772Z,101987.30
2019-04-10T15:47:22.176Z,101993.44
2019-04-10T15:49:53.528Z,101994.05
2019-04-10T15:52:27.603Z,101983.71
2019-04-10T15:55:01.655Z,101989.48
2019-04-10T15:57:44.846Z,101993.66
2019-04-10T16:00:12.839Z,101994.26
2019-04-10T16:02:48.916Z,101993.39
2019-04-10T16:05:23.671Z,101989.81
2019-04-10T16:07:58.587Z,101998.43
2019-04-10T16:10:50.461Z,102002.81
2019-04-10T16:13:32.536Z,102007.50
2019-04-10T16:16:25.502Z,102003.05
2019-04-10T16:19:10.591Z,102006.13
2019-04-10T16:21:45.731Z,102003.22
2019-04-10T16:24:20.649Z,102002.07
2019-04-10T16:26:54.528Z,102006.72
2019-04-10T16:29:28.848Z,102008.15
2019-04-10T16:32:04.176Z,102011.41
2019-04-10T16:34:38.698Z,102008.83
2019-04-10T16:37:12.673Z,101999.32
2019-04-10T16:39:57.812Z,102001.83
2019-04-10T16:42:22.868Z,102000.32
2019-04-10T16:44:57.611Z,102016.35
2019-04-10T16:47:32.379Z,102017.05
2019-04-10T16:50:06.727Z,102017.05
2019-04-10T16:52:41.058Z,102015.77
2019-04-10T16:55:15.639Z,102006.54
2019-04-10T16:57:49.623Z,102006.54
2019-04-10T17:00:23.704Z,102008.11
2019-04-10T17:02:57.610Z,102008.11
2019-04-10T17:05:33.754Z,102019.39
2019-04-10T17:08:07.792Z,102026.81
2019-04-10T17:10:42.843Z,102010.99
2019-04-10T17:13:18.313Z,102021.89
2019-04-10T17:15:53.377Z,102023.93
2019-04-10T17:18:27.541Z,102017.64
2019-04-10T17:21:01.252Z,102017.64
2019-04-10T17:23:36.422Z,102021.29
2019-04-10T17:26:11.023Z,102021.29
2019-04-10T17:28:44.952Z,102026.09
2019-04-10T17:31:19.144Z,102027.89
2019-04-10T17:33:54.337Z,102030.31
2019-04-10T17:36:29.335Z,102040.98
2019-04-10T17:39:03.702Z,102043.16
2019-04-10T17:41:37.455Z,102047.65
2019-04-10T17:44:11.708Z,102042.70
2019-04-10T17:46:45.641Z,102042.70
2019-04-10T17:49:19.724Z,102049.69
2019-04-10T17:51:54.603Z,102049.69
2019-04-10T17:54:29.788Z,102063.05
2019-04-10T17:57:04.537Z,102063.05
2019-04-10T17:59:38.572Z,102065.76
2019-04-10T18:02:13.755Z,102056.48
2019-04-10T18:04:48.329Z,102056.48
2019-04-10T18:07:22.314Z,102073.13
2019-04-10T18:09:56.215Z,102072.75
2019-04-10T18:12:30.096Z,102070.48
2019-04-10T18:15:04.259Z,102078.36
2019-04-10T18:17:38.714Z,102075.38
2019-04-10T18:20:12.945Z,102086.08
2019-04-10T18:22:46.992Z,102081.07
2019-04-10T18:25:22.212Z,102094.03
2019-04-10T18:27:56.905Z,102098.84
2019-04-10T18:30:32.984Z,102101.61
2019-04-10T18:33:07.687Z,102102.28
2019-04-10T18:35:42.811Z,102102.59
2019-04-10T18:38:17.399Z,102111.53
2019-04-10T18:40:55.718Z,102117.63
2019-04-10T18:43:28.245Z,102115.80
2019-04-10T18:46:10.718Z,102117.33
2019-04-10T18:48:38.916Z,102117.38
2019-04-10T18:51:13.887Z,102117.73
2019-04-10T18:53:49.125Z,102128.30
2019-04-10T18:56:23.283Z,102131.94
2019-04-10T18:59:05.726Z,102131.72
2019-04-10T19:02:03.249Z,102131.41
2019-04-10T19:04:43.268Z,102134.75
2019-04-10T19:07:17.436Z,102141.45
2019-04-10T19:09:52.563Z,102145.81
2019-04-10T19:12:26.601Z,102148.37
2019-04-10T19:15:00.345Z,102151.70
2019-04-10T19:17:35.106Z,102154.84
2019-04-10T19:20:11.114Z,102158.72
2019-04-10T19:22:44.928Z,102161.02
2019-04-10T19:25:18.872Z,102159.61
2019-04-10T19:27:52.784Z,102160.92
2019-04-10T19:30:41.716Z,102167.32
2019-04-10T19:33:16.209Z,102167.65
2019-04-10T19:35:50.933Z,102169.12
2019-04-10T19:38:25.254Z,102174.17
2019-04-10T19:41:00.488Z,102174.73
2019-04-10T19:43:34.771Z,102180.89
2019-04-10T19:46:09.903Z,102179.15
2019-04-10T19:48:43.790Z,102181.52
2019-04-10T19:51:18.390Z,102185.78
2019-04-10T19:53:53.343Z,102187.39
2019-04-10T19:56:27.323Z,102197.48
2019-04-10T19:59:01.320Z,102199.86
2019-04-10T20:01:36.075Z,102202.61
2019-04-10T20:04:10.447Z,102198.91
2019-04-10T20:06:44.831Z,102206.73
2019-04-10T20:09:20.066Z,102204.36
2019-04-10T20:11:56.141Z,102201.20
2019-04-10T20:14:30.914Z,102205.09
2019-04-10T20:17:05.936Z,102204.67
2019-04-10T20:19:40.381Z,102208.05
2019-04-10T20:22:14.737Z,102212.80
2019-04-10T20:24:50.111Z,102208.68
2019-04-10T20:27:24.088Z,102214.19
2019-04-10T20:29:58.050Z,102219.22
2019-04-10T20:32:32.239Z,102217.63
2019-04-10T20:35:07.686Z,102223.06
2019-04-10T20:37:42.838Z,102229.58
2019-04-10T20:40:18.065Z,102230.34
2019-04-10T20:42:52.356Z,102230.80
2019-04-10T20:45:26.663Z,102230.47
2019-04-10T20:48:00.785Z,102232.55
2019-04-10T20:50:36.298Z,102237.28
2019-04-10T20:53:10.005Z,102234.42
2019-04-10T20:55:44.085Z,102235.64
2019-04-10T20:58:19.096Z,102238.05
2019-04-10T21:00:54.759Z,102236.48
2019-04-10T21:03:28.563Z,102239.91
2019-04-10T21:06:02.411Z,102243.45
2019-04-10T21:08:36.352Z,102243.75
2019-04-10T21:11:10.229Z,102248.30
2019-04-10T21:13:44.698Z,102252.92
2019-04-10T21:16:19.729Z,102253.18
2019-04-10T21:18:53.938Z,102256.39
2019-04-10T21:21:27.749Z,102263.84
2019-04-10T21:24:02.997Z,102261.47
2019-04-10T21:26:37.314Z,102269.19
2019-04-10T21:29:16.371Z,102267.45
2019-04-10T21:32:01.100Z,102269.25
2019-04-10T21:34:39.095Z,102266.71
2019-04-10T21:37:13.588Z,102265.03
2019-04-10T21:39:47.505Z,102266.91
2019-04-10T21:42:24.272Z,102268.44
2019-04-10T21:44:57.542Z,102268.97
2019-04-10T21:47:31.414Z,102267.05
2019-04-10T21:50:06.892Z,102272.65
2019-04-10T21:52:41.396Z,102264.16
2019-04-10T21:55:15.242Z,102272.78
2019-04-10T21:57:49.143Z,102270.11
2019-04-10T22:00:36.559Z,102269.30
2019-04-10T22:03:11.240Z,102272.50
2019-04-10T22:05:47.237Z,102275.36
2019-04-10T22:08:31.571Z,102274.18
2019-04-10T22:11:06.394Z,102282.73
2019-04-10T22:13:40.364Z,102281.64
2019-04-10T22:16:17.848Z,102281.17
2019-04-10T22:18:52.027Z,102273.69
2019-04-10T22:21:25.851Z,102271.94
2019-04-10T22:24:00.972Z,102274.95
2019-04-10T22:26:34.918Z,102274.20
2019-04-10T22:29:10.618Z,102277.53
2019-04-10T22:31:45.817Z,102279.80
2019-04-10T22:34:19.960Z,102281.66
2019-04-10T22:36:53.775Z,102282.18
2019-04-10T22:39:27.883Z,102281.25
2019-04-10T22:42:01.964Z,102278.45
2019-04-10T22:44:40.881Z,102275.91
2019-04-10T22:47:11.833Z,102283.11
2019-04-10T22:49:45.774Z,102281.03
2019-04-10T22:52:20.063Z,102284.31
2019-04-10T22:54:55.262Z,102285.65
2019-04-10T22:57:29.331Z,102286.17
2019-04-10T23:00:03.425Z,102284.89
2019-04-10T23:02:37.676Z,102281.47
2019-04-10T23:05:12.034Z,102284.67
2019-04-10T23:07:47.162Z,102286.35
2019-04-10T23:10:21.612Z,102281.88
2019-04-10T23:13:01.398Z,102290.87
2019-04-10T23:15:31.456Z,102291.98
2019-04-10T23:18:05.580Z,102291.46
2019-04-10T23:20:39.781Z,102301.80
2019-04-10T23:23:14.702Z,102300.63
2019-04-10T23:25:48.863Z,102298.52
2019-04-10T23:28:23.386Z,102300.31
2019-04-10T23:30:57.371Z,102298.52
2019-04-10T23:33:33.031Z,102302.17
2019-04-10T23:36:07.673Z,102299.97
2019-04-10T23:38:41.941Z,102306.47
2019-04-10T23:41:15.729Z,102305.65
2019-04-10T23:43:49.457Z,102304.84
2019-04-10T23:46:23.594Z,102319.05
2019-04-10T23:48:57.666Z,102310.17
2019-04-10T23:51:31.570Z,102314.70
2019-04-10T23:54:05.815Z,102316.55
2019-04-10T23:56:39.908Z,102314.03
2019-04-10T23:59:14.952Z,102318.91
